createdAt,value
2022-10-05T00:03:54.167Z,87.70
2022-10-05T00:12:02.503Z,87.70
2022-10-05T00:20:20.046Z,87.40
2022-10-05T00:28:34.403Z,87.60
2022-10-05T00:36:41.640Z,87.40
2022-10-05T00:44:55.382Z,87.50
2022-10-05T00:53:10.643Z,87.30
2022-10-05T01:01:22.323Z,87.20
2022-10-05T01:09:36.295Z,86.90
2022-10-05T01:17:52.524Z,87.10
2022-10-05T01:26:11.045Z,87.20
2022-10-05T01:34:28.227Z,87.80
2022-10-05T01:42:40.893Z,87.90
2022-10-05T01:51:00.719Z,87.80
2022-10-05T01:59:19.119Z,87.60
2022-10-05T02:07:32.971Z,87.10
2022-10-05T02:15:43.745Z,87.40
2022-10-05T02:23:59.502Z,88.00
2022-10-05T02:32:10.397Z,88.00
2022-10-05T02:40:31.497Z,88.20
2022-10-05T02:48:46.074Z,88.40
2022-10-05T02:57:01.119Z,87.80
2022-10-05T03:05:15.786Z,88.60
2022-10-05T03:13:33.174Z,88.20
2022-10-05T03:21:53.185Z,88.40
2022-10-05T03:30:07.294Z,88.70
2022-10-05T03:38:22.081Z,88.60
2022-10-05T03:46:41.909Z,88.50
2022-10-05T03:54:51.525Z,88.40
2022-10-05T04:03:05.128Z,88.00
2022-10-05T04:11:15.599Z,88.20
2022-10-05T04:19:28.911Z,88.40
2022-10-05T04:27:39.465Z,88.50
2022-10-05T04:36:16.451Z,88.80
2022-10-05T04:44:52.009Z,88.50
2022-10-05T04:53:12.202Z,89.00
2022-10-05T05:01:38.550Z,88.80
2022-10-05T05:10:16.392Z,88.30
2022-10-05T05:18:49.581Z,88.20
2022-10-05T05:27:09.345Z,89.10
2022-10-05T05:35:41.186Z,89.10
2022-10-05T05:44:07.890Z,89.20
2022-10-05T05:52:25.248Z,88.80
2022-10-05T06:00:40.646Z,88.40
2022-10-05T06:08:49.471Z,87.60
2022-10-05T06:17:40.325Z,83.90
2022-10-05T06:26:01.356Z,84.30
2022-10-05T06:34:22.318Z,83.40
2022-10-05T06:42:58.281Z,83.00
2022-10-05T06:51:19.699Z,81.20
2022-10-05T06:59:52.762Z,80.20
2022-10-05T07:08:02.686Z,80.10
2022-10-05T07:16:15.021Z,78.60
2022-10-05T07:24:33.490Z,78.20
2022-10-05T07:32:43.140Z,76.60
2022-10-05T07:40:58.980Z,76.40
2022-10-05T07:49:09.084Z,75.10
2022-10-05T07:57:29.225Z,74.60
2022-10-05T08:05:37.398Z,73.30
2022-10-05T08:13:54.246Z,73.70
2022-10-05T08:22:07.543Z,67.60
2022-10-05T08:30:18.451Z,68.80
2022-10-05T08:38:33.345Z,69.30
2022-10-05T08:47:10.315Z,69.10
2022-10-05T08:55:35.787Z,68.40
2022-10-05T09:04:19.460Z,64.60
2022-10-05T09:12:54.257Z,64.80
2022-10-05T09:21:08.522Z,68.20
2022-10-05T09:29:39.433Z,65.20
2022-10-05T09:38:18.131Z,55.10
2022-10-05T09:46:45.826Z,41.80
2022-10-05T09:55:26.947Z,38.20
2022-10-05T10:04:07.187Z,35.10
2022-10-05T10:12:35.755Z,32.90
2022-10-05T10:20:58.318Z,30.70
2022-10-05T10:29:33.242Z,29.30
2022-10-05T10:37:59.408Z,28.10
2022-10-05T10:46:23.288Z,28.70
2022-10-05T10:54:49.871Z,27.50
2022-10-05T11:03:28.882Z,26.70
2022-10-05T11:12:03.675Z,27.90
2022-10-05T11:20:38.039Z,30.40
2022-10-05T11:29:06.809Z,34.30
2022-10-05T11:37:48.229Z,40.20
2022-10-05T11:46:08.342Z,45.20
2022-10-05T11:54:58.564Z,48.20
2022-10-05T12:03:37.946Z,51.00
2022-10-05T12:12:08.087Z,52.40
2022-10-05T12:20:19.988Z,54.60
2022-10-05T12:28:36.412Z,55.20
2022-10-05T12:37:04.160Z,54.80
2022-10-05T12:45:24.015Z,55.10
2022-10-05T12:53:48.569Z,56.30
2022-10-05T13:02:08.891Z,56.40
2022-10-05T13:10:28.171Z,56.60
2022-10-05T13:18:45.482Z,56.30
2022-10-05T13:26:54.676Z,56.40
2022-10-05T13:35:14.499Z,56.90
2022-10-05T13:43:26.967Z,58.10
2022-10-05T13:51:42.792Z,57.50
2022-10-05T13:59:56.793Z,59.10
2022-10-05T14:08:20.319Z,58.90
2022-10-05T14:16:26.425Z,58.40
2022-10-05T14:24:44.172Z,58.20
2022-10-05T14:32:56.369Z,58.50
2022-10-05T14:41:27.565Z,58.20
2022-10-05T14:49:37.264Z,58.40
2022-10-05T14:57:50.523Z,58.70
2022-10-05T15:05:59.003Z,58.40
2022-10-05T15:14:14.950Z,58.60
2022-10-05T15:22:32.835Z,58.60
2022-10-05T15:30:43.924Z,58.30
2022-10-05T15:39:04.115Z,58.60
2022-10-05T15:47:18.072Z,58.50
2022-10-05T15:55:38.178Z,59.50
2022-10-05T16:03:53.440Z,59.80
2022-10-05T16:12:12.702Z,60.10
2022-10-05T16:20:31.816Z,61.40
2022-10-05T16:28:47.585Z,61.70
2022-10-05T16:37:06.429Z,62.80
2022-10-05T16:45:24.418Z,63.60
2022-10-05T16:53:39.592Z,66.00
2022-10-05T17:02:00.893Z,66.90
2022-10-05T17:10:33.903Z,66.80
2022-10-05T17:19:19.730Z,68.60
2022-10-05T17:27:35.698Z,69.90
2022-10-05T17:35:53.545Z,71.00
2022-10-05T17:44:31.607Z,71.50
2022-10-05T17:52:49.660Z,71.60
2022-10-05T18:01:17.223Z,72.00
2022-10-05T18:09:38.496Z,74.10
2022-10-05T18:17:50.859Z,74.50
2022-10-05T18:26:04.054Z,75.00
2022-10-05T18:34:31.472Z,75.00
2022-10-05T18:42:42.746Z,75.20
2022-10-05T18:50:58.843Z,75.50
2022-10-05T18:59:18.457Z,76.40
2022-10-05T19:07:37.193Z,76.60
2022-10-05T19:15:50.384Z,77.20
2022-10-05T19:24:34.186Z,78.00
2022-10-05T19:32:47.074Z,78.40
2022-10-05T19:41:01.671Z,78.80
2022-10-05T19:49:11.462Z,78.90
2022-10-05T19:57:21.015Z,79.30
2022-10-05T20:05:26.298Z,79.10
2022-10-05T20:13:35.458Z,79.10
2022-10-05T20:21:44.765Z,79.00
2022-10-05T20:29:53.419Z,79.90
2022-10-05T20:38:00.446Z,80.20
2022-10-05T20:46:08.932Z,80.50
2022-10-05T20:54:19.110Z,80.30
2022-10-05T21:02:27.256Z,80.70
2022-10-05T21:10:32.844Z,81.40
2022-10-05T21:18:40.791Z,81.50
2022-10-05T21:26:47.876Z,81.50
2022-10-05T21:34:55.769Z,81.80
2022-10-05T21:43:01.107Z,82.50
2022-10-05T21:51:10.029Z,82.50
2022-10-05T21:59:19.712Z,82.90
2022-10-05T22:07:29.253Z,82.80
2022-10-05T22:15:35.049Z,84.00
2022-10-05T22:23:43.910Z,84.40
2022-10-05T22:31:50.973Z,84.80
2022-10-05T22:39:58.986Z,84.80
2022-10-05T22:48:04.319Z,85.00
2022-10-05T22:56:14.967Z,85.30
2022-10-05T23:04:20.252Z,85.40
2022-10-05T23:12:28.126Z,86.90
2022-10-05T23:20:33.438Z,86.20
2022-10-05T23:28:43.248Z,87.30
2022-10-05T23:36:48.508Z,88.50
2022-10-05T23:44:56.371Z,87.50
2022-10-05T23:53:01.670Z,87.30
